Time;durP1;ratioP1;P1;durP2;ratioP2;P2;SDS_P1;SDS_P2;PMS_P1;PMS_P2;Temp;Humidity;BMP_temperature;BMP_pressure;BME280_temperature;BME280_humidity;BME280_pressure;Samples;Min_cycle;Max_cycle;Signal;HPM_P1;HPM_P2
2023/06/25 00:01:31;;;;;;;10.50;6.75;;;20.80;99.90;;;;;;5017983;28;20029;-77
2023/06/25 00:03:57;;;;;;;11.82;6.60;;;20.80;99.90;;;;;;5017814;28;20105;-77
2023/06/25 00:06:22;;;;;;;9.95;6.63;;;20.70;99.90;;;;;;5018978;28;20022;-78
2023/06/25 00:08:49;;;;;;;10.05;6.47;;;20.60;99.90;;;;;;5018370;28;20022;-77
2023/06/25 00:11:15;;;;;;;8.95;6.60;;;20.60;99.90;;;;;;5018082;28;20021;-77
2023/06/25 00:13:40;;;;;;;9.75;6.10;;;20.70;99.90;;;;;;5018267;28;20024;-77
2023/06/25 00:16:07;;;;;;;10.60;6.18;;;20.60;99.90;;;;;;5017874;28;20026;-77
2023/06/25 00:18:33;;;;;;;12.48;6.53;;;20.60;99.90;;;;;;5018631;28;20053;-77
2023/06/25 00:20:59;;;;;;;9.27;5.88;;;20.50;99.90;;;;;;5018387;28;20264;-77
2023/06/25 00:23:25;;;;;;;8.32;5.88;;;20.40;99.90;;;;;;5017419;28;20032;-77
2023/06/25 00:25:51;;;;;;;10.32;6.05;;;20.40;99.90;;;;;;5018298;28;20026;-77
2023/06/25 00:28:16;;;;;;;8.43;5.80;;;20.30;99.90;;;;;;5018038;28;20029;-77
2023/06/25 00:30:43;;;;;;;8.90;6.60;;;20.30;99.90;;;;;;5018290;28;20050;-77
2023/06/25 00:33:09;;;;;;;12.55;6.03;;;20.20;99.90;;;;;;5018160;28;20117;-77
2023/06/25 00:36:05;;;;;;;12.02;6.28;;;20.20;99.90;;;;;;5018455;28;20026;-77
2023/06/25 00:38:31;;;;;;;9.85;5.95;;;20.30;99.90;;;;;;5021122;28;20063;-77
2023/06/25 00:40:57;;;;;;;10.25;6.18;;;20.30;99.90;;;;;;5017408;28;20076;-77
2023/06/25 00:43:23;;;;;;;10.48;6.22;;;20.30;99.90;;;;;;5017464;28;20026;-77
2023/06/25 00:45:48;;;;;;;8.95;6.15;;;20.30;99.90;;;;;;5017560;28;20022;-77
2023/06/25 00:48:14;;;;;;;8.93;6.43;;;20.20;99.90;;;;;;5017218;28;20022;-77
2023/06/25 00:50:39;;;;;;;10.18;6.80;;;20.20;99.90;;;;;;5018200;28;20169;-77
2023/06/25 00:53:08;;;;;;;7.97;6.03;;;20.20;99.90;;;;;;5017292;28;20049;-77
2023/06/25 00:55:34;;;;;;;8.80;6.63;;;20.10;99.90;;;;;;5017414;28;20049;-77
2023/06/25 00:58:00;;;;;;;8.70;5.80;;;20.10;99.90;;;;;;5017390;28;20038;-78
2023/06/25 01:00:27;;;;;;;10.48;5.95;;;20.10;99.90;;;;;;5017210;28;20049;-77
2023/06/25 01:03:36;;;;;;;9.00;6.57;;;20.00;99.90;;;;;;5017346;28;20030;-77
2023/06/25 01:06:12;;;;;;;7.82;5.85;;;20.00;99.90;;;;;;4977042;28;20038;-77
2023/06/25 01:08:38;;;;;;;10.90;7.25;;;19.90;99.90;;;;;;4961092;28;20034;-77
2023/06/25 01:11:05;;;;;;;11.57;5.90;;;19.80;99.90;;;;;;4961061;28;20037;-78
2023/06/25 01:13:31;;;;;;;10.63;6.10;;;19.80;99.90;;;;;;4961006;28;20046;-77
2023/06/25 01:15:57;;;;;;;7.65;6.15;;;19.80;99.90;;;;;;4960948;28;20058;-77
2023/06/25 01:18:23;;;;;;;9.30;6.63;;;19.60;99.90;;;;;;4960884;28;20113;-77
2023/06/25 01:20:51;;;;;;;9.07;6.35;;;19.60;99.90;;;;;;4960916;28;20038;-77
2023/06/25 01:23:17;;;;;;;10.25;6.32;;;19.50;99.90;;;;;;4961446;28;20029;-77
2023/06/25 01:25:47;;;;;;;8.65;5.70;;;19.60;99.90;;;;;;4961220;28;20031;-77
2023/06/25 01:28:13;;;;;;;10.05;6.30;;;19.70;99.90;;;;;;4960918;28;20034;-77
2023/06/25 01:30:38;;;;;;;8.52;6.20;;;19.70;99.90;;;;;;4961311;28;20029;-77
2023/06/25 01:33:04;;;;;;;7.45;5.93;;;19.80;99.90;;;;;;4960920;28;20039;-77
2023/06/25 01:35:30;;;;;;;8.73;6.30;;;19.70;99.90;;;;;;4960719;28;20030;-77
2023/06/25 01:37:56;;;;;;;7.53;5.57;;;19.80;99.90;;;;;;4960617;28;20105;-77
2023/06/25 01:40:22;;;;;;;9.20;6.75;;;19.60;99.90;;;;;;4996691;28;20038;-77
2023/06/25 01:42:47;;;;;;;10.07;6.57;;;19.60;99.90;;;;;;5017078;28;20022;-78
2023/06/25 01:45:13;;;;;;;9.98;6.22;;;19.60;99.90;;;;;;5016482;28;20021;-78
2023/06/25 01:47:39;;;;;;;9.20;6.13;;;19.60;99.90;;;;;;5016906;28;20025;-77
2023/06/25 01:50:05;;;;;;;11.40;5.90;;;19.60;99.90;;;;;;5016631;28;20113;-77
2023/06/25 01:52:32;;;;;;;14.85;6.68;;;19.50;99.90;;;;;;5016522;28;20022;-77
2023/06/25 01:54:57;;;;;;;14.13;6.13;;;19.50;99.90;;;;;;5016550;28;20026;-76
2023/06/25 01:57:23;;;;;;;8.80;6.28;;;19.40;99.90;;;;;;5016378;28;20030;-77
2023/06/25 01:59:49;;;;;;;8.55;6.45;;;19.40;99.90;;;;;;5016609;28;20026;-77
2023/06/25 02:02:14;;;;;;;11.32;6.00;;;19.30;99.90;;;;;;5017292;28;20030;-77
2023/06/25 02:04:40;;;;;;;7.63;6.03;;;19.30;99.90;;;;;;5016262;28;20030;-77
2023/06/25 02:07:05;;;;;;;10.20;5.85;;;19.20;99.90;;;;;;5016906;28;20080;-77
2023/06/25 02:09:32;;;;;;;7.13;5.22;;;19.20;99.90;;;;;;5016506;28;20025;-77
2023/06/25 02:11:57;;;;;;;10.45;6.43;;;19.20;99.90;;;;;;5017384;28;20018;-77
2023/06/25 02:14:23;;;;;;;7.93;5.97;;;19.20;99.90;;;;;;5016764;28;20029;-77
2023/06/25 02:16:49;;;;;;;8.27;5.65;;;19.20;99.90;;;;;;5017565;28;20029;-77
2023/06/25 02:19:14;;;;;;;7.93;6.22;;;19.20;99.90;;;;;;5018240;28;20029;-77
2023/06/25 02:21:40;;;;;;;7.68;5.88;;;19.20;99.90;;;;;;5018341;28;20098;-77
2023/06/25 02:24:05;;;;;;;9.20;5.75;;;19.20;99.90;;;;;;5018190;28;20109;-77
2023/06/25 02:26:31;;;;;;;9.18;6.05;;;19.20;99.90;;;;;;5019439;28;20034;-78
2023/06/25 02:28:57;;;;;;;9.43;6.57;;;19.10;99.90;;;;;;5018828;28;20053;-77
2023/06/25 02:31:22;;;;;;;8.25;5.95;;;19.10;99.90;;;;;;5021565;28;20046;-77
2023/06/25 02:33:48;;;;;;;9.40;5.78;;;19.10;99.90;;;;;;5018579;28;20025;-77
2023/06/25 02:36:13;;;;;;;7.55;6.20;;;18.90;99.90;;;;;;5016026;28;20084;-77
2023/06/25 02:38:39;;;;;;;9.00;5.63;;;18.90;99.90;;;;;;5016002;28;20093;-77
2023/06/25 02:41:05;;;;;;;12.00;6.82;;;18.80;99.90;;;;;;5015971;28;20033;-77
2023/06/25 02:43:31;;;;;;;9.93;6.35;;;18.80;99.90;;;;;;5016739;28;20075;-77
2023/06/25 02:45:56;;;;;;;9.57;6.05;;;18.60;99.90;;;;;;5017222;28;20116;-77
2023/06/25 02:48:22;;;;;;;11.25;6.75;;;18.60;99.90;;;;;;5019612;28;20109;-77
2023/06/25 02:50:47;;;;;;;8.65;5.68;;;18.70;99.90;;;;;;5019705;28;20033;-77
2023/06/25 02:53:13;;;;;;;7.70;5.97;;;18.70;99.90;;;;;;5042460;23;20130;-72
2023/06/25 02:55:38;;;;;;;15.73;7.07;;;18.70;99.90;;;;;;5019302;28;20065;-72
2023/06/25 02:58:04;;;;;;;9.30;6.80;;;18.70;99.90;;;;;;5019951;28;20037;-72
2023/06/25 03:00:29;;;;;;;8.50;6.25;;;18.70;99.90;;;;;;5020025;28;20034;-72
2023/06/25 03:02:55;;;;;;;11.43;6.63;;;18.70;99.90;;;;;;5018872;28;20026;-72
2023/06/25 03:05:20;;;;;;;8.60;5.57;;;18.70;99.90;;;;;;5019647;28;20028;-72
2023/06/25 03:07:54;;;;;;;8.32;5.75;;;18.60;99.90;;;;;;5019817;28;20029;-72
2023/06/25 03:10:28;;;;;;;9.00;6.05;;;18.60;99.90;;;;;;5019148;28;20030;-72
2023/06/25 03:12:54;;;;;;;9.35;5.93;;;18.50;99.90;;;;;;5019647;28;20109;-72
2023/06/25 03:15:19;;;;;;;11.25;6.15;;;18.60;99.90;;;;;;5019106;28;20064;-72
2023/06/25 03:17:45;;;;;;;8.55;6.13;;;18.50;99.90;;;;;;5019114;28;20018;-72
2023/06/25 03:20:12;;;;;;;11.13;5.80;;;18.60;99.90;;;;;;5019067;28;20022;-72
2023/06/25 03:22:38;;;;;;;10.00;5.53;;;18.40;99.90;;;;;;5018959;28;20022;-72
2023/06/25 03:25:04;;;;;;;7.07;5.68;;;18.40;99.90;;;;;;5018477;28;20025;-72
2023/06/25 03:27:32;;;;;;;10.95;6.13;;;18.40;99.90;;;;;;5019348;28;20049;-72
2023/06/25 03:29:58;;;;;;;9.77;5.78;;;18.40;99.90;;;;;;5019517;28;20072;-72
2023/06/25 03:32:23;;;;;;;10.40;5.90;;;18.30;99.90;;;;;;5019327;28;20025;-72
2023/06/25 03:34:49;;;;;;;7.18;5.38;;;18.40;99.90;;;;;;5019288;28;20030;-72
2023/06/25 03:37:14;;;;;;;8.82;5.85;;;18.30;99.90;;;;;;5018336;28;20037;-72
2023/06/25 03:39:40;;;;;;;7.05;4.63;;;18.30;99.90;;;;;;5019195;28;20022;-72
2023/06/25 03:42:06;;;;;;;7.22;5.05;;;18.30;99.90;;;;;;5018152;28;20041;-72
2023/06/25 03:44:31;;;;;;;6.20;5.10;;;18.40;99.90;;;;;;5018479;28;20025;-72
2023/06/25 03:46:57;;;;;;;9.88;5.88;;;18.30;99.90;;;;;;5018114;28;20028;-72
2023/06/25 03:49:22;;;;;;;7.93;5.28;;;18.30;99.90;;;;;;5018103;28;20033;-72
2023/06/25 03:51:48;;;;;;;11.70;6.43;;;18.20;99.90;;;;;;5018935;28;20033;-72
2023/06/25 03:54:13;;;;;;;9.32;6.63;;;18.30;99.90;;;;;;5018344;28;20110;-72
2023/06/25 03:56:39;;;;;;;7.30;5.45;;;18.40;99.90;;;;;;5019109;28;20025;-72
2023/06/25 03:59:04;;;;;;;8.85;5.88;;;18.50;99.90;;;;;;5017892;28;20029;-72
2023/06/25 04:01:30;;;;;;;9.25;5.25;;;18.40;99.90;;;;;;5018643;28;20032;-72
2023/06/25 04:03:55;;;;;;;8.10;5.50;;;18.40;99.90;;;;;;5017817;28;20029;-72
2023/06/25 04:06:21;;;;;;;9.57;5.57;;;18.40;99.90;;;;;;5017760;28;20022;-72
2023/06/25 04:08:46;;;;;;;8.07;5.80;;;18.50;99.90;;;;;;5018054;28;20021;-72
2023/06/25 04:11:12;;;;;;;8.13;5.78;;;18.50;99.90;;;;;;5017768;28;20037;-72
2023/06/25 04:13:37;;;;;;;14.63;6.63;;;18.50;99.90;;;;;;5017907;28;20030;-72
2023/06/25 04:16:04;;;;;;;9.23;5.80;;;18.30;99.90;;;;;;5018637;28;20077;-72
2023/06/25 04:18:29;;;;;;;7.50;5.70;;;18.30;99.90;;;;;;5017960;28;20035;-72
2023/06/25 04:20:55;;;;;;;11.38;5.97;;;18.40;99.90;;;;;;5017633;28;20022;-72
2023/06/25 04:23:20;;;;;;;11.45;6.70;;;18.50;99.90;;;;;;5017658;28;20061;-72
2023/06/25 04:25:46;;;;;;;9.02;6.72;;;18.50;99.90;;;;;;5018164;28;20026;-72
2023/06/25 04:28:18;;;;;;;11.27;7.20;;;18.60;99.90;;;;;;5018328;28;20052;-72
2023/06/25 04:30:44;;;;;;;9.88;7.10;;;18.70;99.90;;;;;;5017672;28;20030;-72
2023/06/25 04:33:09;;;;;;;8.57;6.88;;;18.60;99.90;;;;;;5018005;28;20167;-72
2023/06/25 04:35:35;;;;;;;10.40;6.43;;;18.50;99.90;;;;;;5018231;28;20037;-72
2023/06/25 04:38:00;;;;;;;10.30;7.32;;;18.50;99.90;;;;;;5018635;28;20026;-72
2023/06/25 04:40:26;;;;;;;8.13;6.30;;;18.50;99.90;;;;;;5017245;28;20018;-72
2023/06/25 04:42:51;;;;;;;8.80;6.68;;;18.60;99.90;;;;;;5017410;28;20025;-72
2023/06/25 04:45:18;;;;;;;9.40;6.57;;;18.70;99.90;;;;;;5017208;28;20024;-72
2023/06/25 04:47:43;;;;;;;8.30;5.97;;;18.70;99.90;;;;;;5017839;28;20039;-72
2023/06/25 04:50:09;;;;;;;11.82;7.20;;;18.70;99.90;;;;;;5017186;28;20029;-72
2023/06/25 04:52:35;;;;;;;11.02;6.72;;;18.80;99.90;;;;;;5017616;28;20028;-72
2023/06/25 04:55:00;;;;;;;10.43;6.47;;;18.90;99.90;;;;;;5017346;28;20022;-72
2023/06/25 04:57:26;;;;;;;11.60;6.97;;;18.90;99.90;;;;;;5017203;28;20022;-72
2023/06/25 04:59:51;;;;;;;9.82;6.35;;;19.00;99.90;;;;;;5017195;28;20073;-72
2023/06/25 05:02:17;;;;;;;13.73;6.97;;;19.10;99.90;;;;;;5016685;28;20068;-72
2023/06/25 05:04:43;;;;;;;11.07;7.25;;;19.20;99.90;;;;;;5016748;28;20030;-72
2023/06/25 05:07:09;;;;;;;10.18;7.22;;;19.30;99.90;;;;;;5017616;28;20072;-72
2023/06/25 05:09:34;;;;;;;10.75;6.85;;;19.40;99.90;;;;;;5016365;28;20030;-72
2023/06/25 05:12:00;;;;;;;10.20;6.80;;;19.50;99.90;;;;;;5016672;28;20018;-72
2023/06/25 05:14:27;;;;;;;10.43;7.10;;;19.50;99.90;;;;;;5016736;28;20030;-72
2023/06/25 05:16:52;;;;;;;12.25;7.15;;;19.60;99.90;;;;;;5017132;28;20026;-72
2023/06/25 05:19:18;;;;;;;9.63;6.47;;;19.70;99.90;;;;;;5016892;28;20033;-72
2023/06/25 05:21:43;;;;;;;10.52;7.15;;;19.80;99.90;;;;;;5016567;28;20025;-72
2023/06/25 05:24:09;;;;;;;14.95;7.07;;;19.80;99.90;;;;;;5016433;28;20030;-72
2023/06/25 05:26:34;;;;;;;11.75;7.43;;;19.90;99.90;;;;;;5016445;28;20025;-72
2023/06/25 05:29:01;;;;;;;10.43;6.90;;;20.00;99.90;;;;;;5017237;28;20090;-72
2023/06/25 05:31:28;;;;;;;10.77;7.07;;;20.10;99.90;;;;;;5017166;28;20076;-72
2023/06/25 05:33:53;;;;;;;12.80;7.72;;;20.10;99.90;;;;;;5016567;28;20022;-72
2023/06/25 05:36:19;;;;;;;9.20;6.65;;;20.10;99.90;;;;;;5016498;28;20037;-72
2023/06/25 05:38:44;;;;;;;10.43;7.55;;;20.20;99.90;;;;;;5016276;28;20112;-72
2023/06/25 05:41:10;;;;;;;10.73;6.97;;;20.20;99.90;;;;;;5016220;28;20053;-72
2023/06/25 05:43:35;;;;;;;8.32;6.35;;;20.30;99.90;;;;;;5017173;28;20030;-73
2023/06/25 05:46:01;;;;;;;15.45;7.18;;;20.30;99.90;;;;;;5016023;28;20099;-72
2023/06/25 05:48:27;;;;;;;9.23;6.57;;;20.30;99.90;;;;;;5016219;28;20029;-72
2023/06/25 05:50:52;;;;;;;11.75;6.93;;;20.40;99.90;;;;;;5016821;28;20025;-72
2023/06/25 05:53:18;;;;;;;8.65;7.00;;;20.40;99.90;;;;;;5016485;28;20102;-72
2023/06/25 05:55:44;;;;;;;11.85;7.18;;;20.50;99.90;;;;;;5017104;28;20057;-72
2023/06/25 05:58:10;;;;;;;9.48;7.28;;;20.50;99.90;;;;;;5016088;28;20089;-73
2023/06/25 06:00:35;;;;;;;9.18;6.72;;;20.60;99.90;;;;;;5016012;28;20022;-72
2023/06/25 06:03:01;;;;;;;9.13;6.55;;;20.70;99.90;;;;;;5016074;28;20033;-72
2023/06/25 06:05:26;;;;;;;8.90;6.50;;;20.70;99.90;;;;;;5016531;28;20109;-72
2023/06/25 06:07:52;;;;;;;11.35;6.22;;;20.80;99.90;;;;;;5016933;28;20022;-72
2023/06/25 06:10:18;;;;;;;11.00;6.35;;;20.80;99.90;;;;;;5016870;28;20080;-72
2023/06/25 06:12:44;;;;;;;9.02;6.25;;;20.90;99.90;;;;;;5017032;28;20018;-72
2023/06/25 06:15:09;;;;;;;9.30;6.90;;;20.90;99.90;;;;;;5016221;28;20026;-73
2023/06/25 06:17:35;;;;;;;11.75;6.93;;;21.00;99.90;;;;;;5015871;28;20030;-72
2023/06/25 06:20:00;;;;;;;10.88;6.55;;;21.00;99.90;;;;;;5016671;28;20030;-72
2023/06/25 06:22:26;;;;;;;8.10;6.57;;;21.10;99.90;;;;;;5018861;28;20026;-73
2023/06/25 06:24:52;;;;;;;12.82;6.72;;;21.20;99.90;;;;;;5020894;28;20033;-72
2023/06/25 06:27:17;;;;;;;9.23;6.38;;;21.30;99.90;;;;;;5019857;28;20030;-73
2023/06/25 06:29:43;;;;;;;7.82;5.95;;;21.40;99.90;;;;;;5020290;28;20026;-72
2023/06/25 06:32:09;;;;;;;8.57;5.55;;;21.40;99.90;;;;;;5019460;28;20022;-72
2023/06/25 06:34:35;;;;;;;9.77;6.78;;;21.50;99.90;;;;;;5019680;28;20033;-73
2023/06/25 06:37:01;;;;;;;8.40;6.10;;;21.50;99.90;;;;;;5019474;28;20026;-73
2023/06/25 06:39:26;;;;;;;7.53;5.85;;;21.40;99.90;;;;;;5019707;28;20028;-73
2023/06/25 06:41:52;;;;;;;8.48;6.13;;;21.50;99.90;;;;;;5019701;28;20036;-73
2023/06/25 06:44:19;;;;;;;9.52;6.40;;;21.60;99.90;;;;;;5019185;28;20030;-73
2023/06/25 06:46:45;;;;;;;8.00;5.70;;;21.70;99.90;;;;;;5020286;28;20052;-73
2023/06/25 06:49:11;;;;;;;8.18;5.55;;;21.80;99.90;;;;;;5019311;28;20018;-72
2023/06/25 06:51:37;;;;;;;11.73;6.18;;;21.90;99.90;;;;;;5019105;28;20026;-72
2023/06/25 06:54:06;;;;;;;7.35;5.22;;;21.90;99.90;;;;;;5018828;28;20037;-73
2023/06/25 06:56:32;;;;;;;12.27;5.60;;;22.00;99.90;;;;;;5020000;28;20033;-73
2023/06/25 06:58:58;;;;;;;7.63;4.60;;;22.10;99.90;;;;;;5019161;28;20030;-73
2023/06/25 07:01:24;;;;;;;6.45;4.97;;;22.10;99.90;;;;;;5019358;28;20053;-73
2023/06/25 07:03:50;;;;;;;6.80;4.53;;;22.20;99.90;;;;;;5019223;28;20032;-73
2023/06/25 07:06:15;;;;;;;6.63;4.80;;;22.30;99.90;;;;;;5018929;28;20030;-73
2023/06/25 07:08:41;;;;;;;7.65;4.95;;;22.30;99.90;;;;;;5019282;28;20080;-73
2023/06/25 07:11:07;;;;;;;5.53;4.28;;;22.40;99.90;;;;;;5018876;28;20024;-73
2023/06/25 07:13:32;;;;;;;8.77;5.13;;;22.40;99.90;;;;;;5019587;28;20021;-72
2023/06/25 07:15:58;;;;;;;7.10;4.68;;;22.50;99.90;;;;;;5019107;28;20037;-73
2023/06/25 07:18:24;;;;;;;7.10;4.63;;;22.60;99.90;;;;;;5019112;28;20022;-73
2023/06/25 07:20:50;;;;;;;4.88;4.22;;;22.70;99.90;;;;;;5018593;28;20026;-73
2023/06/25 07:23:15;;;;;;;7.03;4.55;;;22.70;99.90;;;;;;5018678;28;20033;-73
2023/06/25 07:25:41;;;;;;;6.68;5.05;;;22.80;99.90;;;;;;5018553;28;20026;-72
2023/06/25 07:28:09;;;;;;;6.78;4.50;;;22.80;99.90;;;;;;5018716;28;20113;-72
2023/06/25 07:30:34;;;;;;;6.20;4.35;;;22.90;99.90;;;;;;5018477;28;20028;-72
2023/06/25 07:33:00;;;;;;;7.40;5.47;;;23.00;99.90;;;;;;5018395;28;20096;-73
2023/06/25 07:35:26;;;;;;;7.22;4.65;;;23.10;99.90;;;;;;5017930;28;20021;-72
2023/06/25 07:37:51;;;;;;;7.28;5.18;;;23.20;99.90;;;;;;5018328;28;20026;-73
2023/06/25 07:40:17;;;;;;;5.38;4.43;;;23.30;99.90;;;;;;5018414;28;20030;-72
2023/06/25 07:42:42;;;;;;;8.45;4.70;;;23.30;99.90;;;;;;5018244;28;20033;-73
2023/06/25 07:45:09;;;;;;;7.32;4.13;;;23.40;99.90;;;;;;5018678;28;20034;-72
2023/06/25 07:47:35;;;;;;;5.15;4.25;;;23.50;99.90;;;;;;5018073;28;20022;-73
2023/06/25 07:50:01;;;;;;;6.53;4.30;;;23.60;99.90;;;;;;5018318;28;20053;-73
2023/06/25 07:52:26;;;;;;;6.38;4.80;;;23.60;99.90;;;;;;5017769;28;20037;-73
2023/06/25 07:54:52;;;;;;;7.50;4.40;;;23.60;99.90;;;;;;5017971;28;20022;-72
2023/06/25 07:57:18;;;;;;;8.18;4.63;;;23.60;99.90;;;;;;5018126;28;20029;-73
2023/06/25 07:59:43;;;;;;;5.57;4.50;;;23.70;99.90;;;;;;5017868;28;20022;-73
2023/06/25 08:02:09;;;;;;;5.03;3.90;;;23.80;99.90;;;;;;5018223;28;20022;-73
2023/06/25 08:04:35;;;;;;;5.22;4.25;;;23.80;99.90;;;;;;5018892;28;20041;-72
2023/06/25 08:07:01;;;;;;;6.07;4.15;;;23.90;99.90;;;;;;5018680;28;20029;-72
2023/06/25 08:09:27;;;;;;;5.47;4.28;;;23.90;99.90;;;;;;5018175;28;20109;-73
2023/06/25 08:11:52;;;;;;;7.35;4.80;;;24.00;99.90;;;;;;5017766;28;20018;-72
2023/06/25 08:14:18;;;;;;;7.72;4.50;;;24.10;99.90;;;;;;5018903;28;20060;-73
2023/06/25 08:16:44;;;;;;;6.50;4.95;;;24.20;99.90;;;;;;5017898;28;20034;-72
2023/06/25 08:19:09;;;;;;;5.70;4.78;;;24.30;99.90;;;;;;5018132;28;20058;-72
2023/06/25 08:21:35;;;;;;;8.30;4.63;;;24.60;99.90;;;;;;5017512;28;20133;-72
2023/06/25 08:24:01;;;;;;;7.63;4.70;;;24.90;99.90;;;;;;5018451;28;20034;-72
2023/06/25 08:26:26;;;;;;;5.88;4.43;;;25.00;99.90;;;;;;5018282;28;20049;-72
2023/06/25 08:28:52;;;;;;;5.32;3.85;;;25.10;99.90;;;;;;5017630;28;20021;-72
2023/06/25 08:31:18;;;;;;;5.18;3.97;;;25.10;99.90;;;;;;5017352;28;20109;-73
2023/06/25 08:33:45;;;;;;;3.83;3.40;;;25.20;99.90;;;;;;5017209;28;20093;-73
2023/06/25 08:36:10;;;;;;;4.82;3.63;;;25.20;99.90;;;;;;5017733;28;20026;-72
2023/06/25 08:38:36;;;;;;;7.80;3.72;;;25.10;99.90;;;;;;5018290;28;20029;-75
2023/06/25 08:41:02;;;;;;;4.13;3.45;;;25.30;99.90;;;;;;5017793;28;20026;-73
2023/06/25 08:43:28;;;;;;;4.57;3.45;;;25.60;99.90;;;;;;5016779;28;20030;-74
2023/06/25 08:45:53;;;;;;;4.93;3.47;;;25.60;99.90;;;;;;5017425;28;20053;-74
2023/06/25 08:48:21;;;;;;;5.75;3.75;;;25.70;99.90;;;;;;5017859;28;20018;-74
2023/06/25 08:50:56;;;;;;;6.53;3.75;;;25.80;99.90;;;;;;5017088;28;20026;-74
2023/06/25 08:53:25;;;;;;;7.03;3.92;;;25.90;99.90;;;;;;5042130;22;20038;-74
2023/06/25 08:55:52;;;;;;;4.88;3.60;;;25.90;99.90;;;;;;5017044;28;20080;-73
2023/06/25 08:58:18;;;;;;;4.28;3.55;;;26.10;99.90;;;;;;5016808;28;20030;-73
2023/06/25 09:00:43;;;;;;;5.68;3.85;;;26.30;99.90;;;;;;5017302;28;20030;-73
2023/06/25 09:03:09;;;;;;;3.78;3.25;;;26.40;99.90;;;;;;5016920;28;20033;-73
2023/06/25 09:05:35;;;;;;;5.60;3.90;;;26.40;99.90;;;;;;5016885;28;20028;-73
2023/06/25 09:08:01;;;;;;;5.72;3.83;;;26.50;99.90;;;;;;5016780;28;20044;-73
2023/06/25 09:10:30;;;;;;;3.78;3.35;;;26.60;99.90;;;;;;5017689;28;20030;-73
2023/06/25 09:12:56;;;;;;;4.25;3.58;;;26.60;99.90;;;;;;5017723;28;20049;-73
2023/06/25 09:15:23;;;;;;;4.80;3.65;;;26.60;99.90;;;;;;5017111;28;20069;-73
2023/06/25 09:17:54;;;;;;;4.75;4.00;;;26.50;99.90;;;;;;5017514;28;20018;-73
2023/06/25 09:20:20;;;;;;;7.10;3.63;;;26.40;99.90;;;;;;5017103;28;20021;-73
2023/06/25 09:22:55;;;;;;;6.93;3.80;;;26.50;99.90;;;;;;5016838;28;20276;-73
2023/06/25 09:25:28;;;;;;;4.60;3.30;;;26.80;99.90;;;;;;5016819;28;20025;-73
2023/06/25 09:27:55;;;;;;;5.80;3.42;;;27.00;99.90;;;;;;5016527;28;20029;-73
2023/06/25 09:30:24;;;;;;;4.55;3.78;;;26.90;99.90;;;;;;5016446;28;20022;-73
2023/06/25 09:32:51;;;;;;;6.70;3.72;;;26.80;99.90;;;;;;5016381;28;20018;-73
2023/06/25 09:35:25;;;;;;;4.38;3.28;;;26.90;99.90;;;;;;5017150;28;20029;-73
2023/06/25 09:37:51;;;;;;;5.43;3.30;;;27.10;99.90;;;;;;5016493;28;20026;-70
2023/06/25 09:40:18;;;;;;;6.05;3.35;;;27.20;99.90;;;;;;5016405;28;20026;-70
2023/06/25 09:42:44;;;;;;;4.22;3.03;;;27.20;99.90;;;;;;5016478;28;20029;-71
2023/06/25 09:45:15;;;;;;;3.83;3.42;;;27.20;99.90;;;;;;5017217;28;20034;-70
2023/06/25 09:47:46;;;;;;;5.10;3.35;;;27.30;99.90;;;;;;5016243;28;20033;-70
2023/06/25 09:50:21;;;;;;;3.95;3.30;;;27.50;99.90;;;;;;5017430;28;20171;-71
2023/06/25 09:52:52;;;;;;;5.32;3.67;;;27.30;99.90;;;;;;5016248;28;20128;-71
2023/06/25 09:55:20;;;;;;;4.47;3.50;;;27.20;99.90;;;;;;5016599;28;20028;-71
2023/06/25 09:57:47;;;;;;;4.70;3.38;;;27.20;99.90;;;;;;5020874;28;20112;-71
2023/06/25 10:00:13;;;;;;;5.57;3.70;;;27.60;99.90;;;;;;5020606;28;20026;-71
2023/06/25 10:02:40;;;;;;;4.57;3.85;;;28.00;99.90;;;;;;5020199;28;20036;-71
2023/06/25 10:05:05;;;;;;;6.15;4.03;;;27.90;99.90;;;;;;5020145;28;20024;-70
2023/06/25 10:07:31;;;;;;;4.18;3.75;;;27.90;99.60;;;;;;5020093;28;20116;-71
2023/06/25 10:09:57;;;;;;;5.78;3.78;;;27.90;99.40;;;;;;5020909;28;20018;-70
2023/06/25 10:12:23;;;;;;;5.53;3.95;;;27.80;99.40;;;;;;5020994;28;20029;-70
2023/06/25 10:14:49;;;;;;;6.13;4.13;;;27.90;99.00;;;;;;5020509;28;20028;-71
2023/06/25 10:17:14;;;;;;;5.47;3.88;;;28.00;99.30;;;;;;5020811;28;20032;-71
2023/06/25 10:19:52;;;;;;;4.70;3.70;;;28.30;99.40;;;;;;5020997;28;20082;-71
2023/06/25 10:22:22;;;;;;;5.93;3.90;;;28.50;98.20;;;;;;5020752;28;20033;-71
2023/06/25 10:24:49;;;;;;;6.78;3.63;;;28.60;97.90;;;;;;5020248;28;20033;-71
2023/06/25 10:27:26;;;;;;;5.18;3.50;;;28.60;98.00;;;;;;5020382;28;20037;-71
2023/06/25 10:29:54;;;;;;;4.88;3.63;;;28.60;97.20;;;;;;5020673;28;20036;-71
2023/06/25 10:32:21;;;;;;;4.30;3.60;;;28.60;96.80;;;;;;5019794;28;20022;-71
2023/06/25 10:35:00;;;;;;;5.75;3.75;;;28.60;96.30;;;;;;5019634;28;20030;-72
2023/06/25 10:37:33;;;;;;;6.53;3.95;;;29.00;96.00;;;;;;5020523;28;20025;-72
2023/06/25 10:40:05;;;;;;;6.43;4.00;;;29.20;96.10;;;;;;5019835;28;20073;-72
2023/06/25 10:42:31;;;;;;;6.68;4.28;;;29.40;95.10;;;;;;5020412;28;20022;-72
2023/06/25 10:45:00;;;;;;;5.57;4.18;;;29.80;95.20;;;;;;5019754;28;20037;-72
2023/06/25 10:47:26;;;;;;;4.90;3.75;;;30.00;94.90;;;;;;5019678;28;20030;-72
2023/06/25 10:49:52;;;;;;;4.38;3.97;;;30.70;93.70;;;;;;5019457;28;20072;-72
2023/06/25 10:52:18;;;;;;;5.93;4.15;;;31.10;91.80;;;;;;5019295;28;20018;-72
2023/06/25 10:54:43;;;;;;;4.90;4.40;;;31.00;92.80;;;;;;5019625;28;20030;-72
2023/06/25 10:57:11;;;;;;;5.65;4.00;;;30.80;92.30;;;;;;5019237;28;20026;-72
2023/06/25 10:59:38;;;;;;;4.60;3.63;;;31.00;92.20;;;;;;5019160;28;20030;-73
2023/06/25 11:02:17;;;;;;;6.35;3.65;;;31.10;91.70;;;;;;5019947;28;20087;-73
2023/06/25 11:04:59;;;;;;;5.43;4.27;;;31.60;90.70;;;;;;5019414;28;20025;-73
2023/06/25 11:07:27;;;;;;;4.47;3.97;;;32.00;89.20;;;;;;5019192;28;20026;-73
2023/06/25 11:10:00;;;;;;;4.72;3.83;;;32.10;89.00;;;;;;5019340;28;20030;-73
2023/06/25 11:12:28;;;;;;;4.60;4.05;;;32.10;87.70;;;;;;5018851;28;20018;-73
2023/06/25 11:14:54;;;;;;;4.15;3.75;;;32.00;86.40;;;;;;5018997;28;20092;-72
2023/06/25 11:17:20;;;;;;;6.35;4.20;;;31.90;86.80;;;;;;5019159;28;20026;-73
2023/06/25 11:19:53;;;;;;;5.65;3.90;;;32.40;85.30;;;;;;5019822;28;20022;-72
2023/06/25 11:22:20;;;;;;;4.68;3.72;;;33.90;81.20;;;;;;5019880;28;20026;-73
2023/06/25 11:24:46;;;;;;;4.82;3.67;;;34.70;78.30;;;;;;5018581;28;20076;-73
2023/06/25 11:27:11;;;;;;;6.38;4.15;;;35.40;74.80;;;;;;5019641;28;20033;-73
2023/06/25 11:29:39;;;;;;;4.70;4.10;;;35.30;74.20;;;;;;5019155;28;20109;-73
2023/06/25 11:32:08;;;;;;;4.13;3.72;;;33.80;75.10;;;;;;5018546;28;20021;-72
2023/06/25 11:34:34;;;;;;;6.10;4.13;;;34.30;76.60;;;;;;5018849;28;20022;-72
2023/06/25 11:37:14;;;;;;;6.20;3.72;;;34.50;74.20;;;;;;5018744;28;20030;-72
2023/06/25 11:39:47;;;;;;;4.55;4.10;;;33.90;73.10;;;;;;5018393;28;20033;-73
2023/06/25 11:42:21;;;;;;;5.85;4.38;;;33.30;75.90;;;;;;5019179;28;20092;-73
2023/06/25 11:45:03;;;;;;;4.50;4.10;;;34.20;74.20;;;;;;5018210;28;20034;-73
2023/06/25 11:47:28;;;;;;;4.55;3.95;;;34.30;74.40;;;;;;5019395;28;20033;-72
2023/06/25 11:49:55;;;;;;;4.22;3.80;;;34.00;74.50;;;;;;5019036;28;20022;-73
2023/06/25 11:52:22;;;;;;;4.72;4.22;;;33.90;74.60;;;;;;5018454;28;20030;-73
2023/06/25 11:54:47;;;;;;;5.15;3.80;;;33.60;74.50;;;;;;5018026;28;20072;-72
2023/06/25 11:57:13;;;;;;;4.30;3.90;;;33.40;74.00;;;;;;5018042;28;20026;-72
2023/06/25 11:59:39;;;;;;;4.70;4.00;;;34.80;71.20;;;;;;5017997;28;20108;-72
2023/06/25 12:02:05;;;;;;;4.18;3.70;;;33.90;72.00;;;;;;5017988;28;20025;-72
2023/06/25 12:04:31;;;;;;;5.18;3.90;;;33.60;73.20;;;;;;5017812;28;20065;-72
2023/06/25 12:06:56;;;;;;;5.05;3.72;;;33.20;72.90;;;;;;5018637;28;20068;-72
2023/06/25 12:09:22;;;;;;;4.25;3.83;;;33.60;72.10;;;;;;5018847;28;20025;-73
2023/06/25 12:11:48;;;;;;;5.07;3.97;;;33.60;70.40;;;;;;5018064;28;20049;-73
2023/06/25 12:14:14;;;;;;;5.05;4.03;;;33.50;71.60;;;;;;5017975;28;20110;-73
2023/06/25 12:16:39;;;;;;;3.90;3.60;;;33.60;71.60;;;;;;5018919;28;20073;-73
2023/06/25 12:19:05;;;;;;;3.95;3.55;;;33.60;70.60;;;;;;5017279;28;20033;-73
2023/06/25 12:21:31;;;;;;;4.28;3.88;;;33.50;70.40;;;;;;5017592;28;20029;-73
2023/06/25 12:23:57;;;;;;;3.90;3.60;;;33.40;70.40;;;;;;5017889;28;20030;-72
2023/06/25 12:26:22;;;;;;;6.20;3.80;;;33.20;71.60;;;;;;5018768;28;20026;-73
2023/06/25 12:28:48;;;;;;;5.30;4.05;;;33.30;71.60;;;;;;5017739;28;20074;-73
2023/06/25 12:31:16;;;;;;;5.53;4.38;;;33.00;71.50;;;;;;5017345;28;20017;-72
2023/06/25 12:33:42;;;;;;;6.50;4.47;;;32.90;72.90;;;;;;5018069;28;20021;-72
2023/06/25 12:36:08;;;;;;;4.72;4.10;;;33.20;73.60;;;;;;5017589;28;20032;-73
2023/06/25 12:38:34;;;;;;;4.57;3.50;;;33.20;74.00;;;;;;5017361;28;20042;-73
2023/06/25 12:41:00;;;;;;;4.22;3.80;;;33.90;70.00;;;;;;5017324;28;20033;-73
2023/06/25 12:43:26;;;;;;;4.65;4.18;;;33.50;71.30;;;;;;5017133;28;20022;-73